Axtell, Utah
Current Conditions -  °F | °C
As of 5:35 PM on Friday 21 Nov 2014 (Local Time) from KDTA Reporting Station
Clear Clear  
Wind Chill:   Ceiling: Unl
Heat Index:   Visibility: 10mi
Dew Point: -7°   Wind: 0mph
Humidity: 34%   Direction: NA
Pressure: 30"   Gusts: NA
Location:  39.06°N, 111.82°W
Report Text: KDTA 220035Z AUTO 00000KT 10SM CLR 08/M07 A3000 RMK AO1 T00831067
Loading
Personal Weather Stations






























Interactive Weather Map New forecast layout! Learn more

10-Day Weather Forecast

Advertisements
Track Severe Weather on mobile